createdAt,value
2022-12-22T00:00:58.458Z,100244.72
2022-12-22T00:06:19.043Z,100234.59
2022-12-22T00:11:39.791Z,100222.56
2022-12-22T00:17:00.286Z,100220.50
2022-12-22T00:22:25.638Z,100229.41
2022-12-22T00:27:49.531Z,100231.13
2022-12-22T00:33:10.145Z,100220.31
2022-12-22T00:38:37.019Z,100205.41
2022-12-22T00:43:57.283Z,100196.50
2022-12-22T00:49:18.261Z,100183.00
2022-12-22T00:54:40.492Z,100170.13
2022-12-22T01:00:01.004Z,100173.19
2022-12-22T01:05:21.201Z,100178.66
2022-12-22T01:10:45.120Z,100178.94
2022-12-22T01:16:05.709Z,100179.44
2022-12-22T01:21:28.509Z,100169.81
2022-12-22T01:26:49.319Z,100175.66
2022-12-22T01:32:09.733Z,100179.53
2022-12-22T01:37:30.228Z,100168.97
2022-12-22T01:42:53.184Z,100172.91
2022-12-22T01:48:13.555Z,100161.09
2022-12-22T01:53:36.727Z,100154.88
2022-12-22T01:59:04.155Z,100146.44
2022-12-22T02:04:24.480Z,100148.72
2022-12-22T02:09:56.932Z,100134.44
2022-12-22T02:15:21.691Z,100140.78
2022-12-22T02:20:58.887Z,100146.94
2022-12-22T02:26:38.063Z,100142.56
2022-12-22T02:31:58.812Z,100147.59
2022-12-22T02:37:29.578Z,100134.34
2022-12-22T02:42:59.368Z,100132.25
2022-12-22T02:48:33.628Z,100121.84
2022-12-22T02:53:54.345Z,100116.19
2022-12-22T02:59:16.074Z,100115.69
2022-12-22T03:04:36.265Z,100105.47
2022-12-22T03:09:56.671Z,100098.41
2022-12-22T03:15:17.072Z,100101.50
2022-12-22T03:20:37.429Z,100088.19
2022-12-22T03:25:54.474Z,100079.88
2022-12-22T03:30:59.252Z,100083.34
2022-12-22T03:36:01.672Z,100089.03
2022-12-22T03:41:03.538Z,100093.09
2022-12-22T03:46:24.225Z,100093.38
2022-12-22T03:51:25.961Z,100095.09
2022-12-22T03:56:27.616Z,100100.16
2022-12-22T04:01:29.506Z,100095.44
2022-12-22T04:06:31.346Z,100101.97
2022-12-22T04:11:51.601Z,100100.09
2022-12-22T04:16:53.229Z,100095.00
2022-12-22T04:21:54.915Z,100100.72
2022-12-22T04:26:56.618Z,100096.41
2022-12-22T04:31:58.258Z,100120.69
2022-12-22T04:37:09.873Z,100109.38
2022-12-22T04:42:16.584Z,100095.84
2022-12-22T04:47:18.419Z,100113.53
2022-12-22T04:52:20.095Z,100110.78
2022-12-22T04:57:21.823Z,100104.06
2022-12-22T05:02:23.491Z,100103.69
2022-12-22T05:07:25.279Z,100109.06
2022-12-22T05:12:45.656Z,100123.25
2022-12-22T05:17:47.923Z,100133.00
2022-12-22T05:22:50.061Z,100142.88
2022-12-22T05:27:51.744Z,100148.00
2022-12-22T05:32:53.561Z,100139.22
2022-12-22T05:37:55.243Z,100140.28
2022-12-22T05:42:56.905Z,100135.47
2022-12-22T05:47:58.594Z,100142.63
2022-12-22T05:53:00.288Z,100159.47
2022-12-22T05:58:02.361Z,100155.19
2022-12-22T06:03:04.170Z,100157.81
2022-12-22T06:08:05.884Z,100157.50
2022-12-22T06:13:07.511Z,100173.94
2022-12-22T06:18:09.119Z,100185.59
2022-12-22T06:23:10.787Z,100192.13
2022-12-22T06:28:12.481Z,100195.22
2022-12-22T06:33:14.063Z,100201.75
2022-12-22T06:38:15.623Z,100207.59
2022-12-22T06:43:17.286Z,100198.22
2022-12-22T06:48:19.579Z,100213.13
2022-12-22T06:53:21.223Z,100225.97
2022-12-22T06:58:22.953Z,100223.41
2022-12-22T07:03:24.729Z,100221.56
2022-12-22T07:08:26.533Z,100232.19
2022-12-22T07:13:35.561Z,100233.03
2022-12-22T07:18:40.579Z,100240.22
2022-12-22T07:23:42.296Z,100249.47
2022-12-22T07:28:44.265Z,100253.59
2022-12-22T07:33:45.924Z,100254.16
2022-12-22T07:38:50.369Z,100245.56
2022-12-22T07:43:57.642Z,100257.59
2022-12-22T07:49:17.942Z,100291.69
2022-12-22T07:54:19.603Z,100282.78
2022-12-22T07:59:21.347Z,100286.22
2022-12-22T08:04:23.126Z,100300.28
2022-12-22T08:09:24.911Z,100302.34
2022-12-22T08:14:26.719Z,100312.63
2022-12-22T08:19:28.572Z,100324.97
2022-12-22T08:24:30.583Z,100320.38
2022-12-22T08:29:36.489Z,100349.97
2022-12-22T08:34:38.179Z,100345.88
2022-12-22T08:39:43.319Z,100342.13
2022-12-22T08:44:46.061Z,100344.88
2022-12-22T08:49:48.604Z,100349.47
2022-12-22T08:54:50.344Z,100356.50
2022-12-22T08:59:52.014Z,100363.34
2022-12-22T09:04:53.573Z,100365.91
2022-12-22T09:09:55.121Z,100373.59
2022-12-22T09:14:56.995Z,100376.66
2022-12-22T09:19:58.564Z,100371.72
2022-12-22T09:25:00.179Z,100364.72
2022-12-22T09:30:01.907Z,100367.28
2022-12-22T09:35:03.809Z,100378.41
2022-12-22T09:40:06.429Z,100390.38
2022-12-22T09:45:19.971Z,100397.22
2022-12-22T09:50:24.637Z,100389.66
2022-12-22T09:55:37.853Z,100390.03
2022-12-22T10:00:39.747Z,100391.38
2022-12-22T10:05:59.724Z,100403.88
2022-12-22T10:11:01.446Z,100394.97
2022-12-22T10:16:17.076Z,100403.69
2022-12-22T10:21:23.449Z,100404.19
2022-12-22T10:26:33.921Z,100416.69
2022-12-22T10:31:39.718Z,100427.47
2022-12-22T10:36:49.955Z,100424.22
2022-12-22T10:41:55.294Z,100429.38
2022-12-22T10:47:00.158Z,100425.75
2022-12-22T10:52:20.177Z,100423.19
2022-12-22T10:57:29.839Z,100426.25
2022-12-22T11:02:31.629Z,100424.19
2022-12-22T11:07:36.585Z,100432.22
2022-12-22T11:12:54.092Z,100435.66
2022-12-22T11:18:17.698Z,100438.22
2022-12-22T11:23:25.307Z,100444.75
2022-12-22T11:28:36.207Z,100438.91
2022-12-22T11:33:55.858Z,100437.38
2022-12-22T11:39:07.086Z,100431.03
2022-12-22T11:44:42.260Z,100440.66
2022-12-22T11:49:53.428Z,100454.72
2022-12-22T11:55:11.672Z,100440.69
2022-12-22T12:00:15.807Z,100449.59
2022-12-22T12:05:33.238Z,100448.56
2022-12-22T12:10:43.623Z,100434.16
2022-12-22T12:15:52.529Z,100445.13
2022-12-22T12:21:00.606Z,100439.34
2022-12-22T12:26:21.120Z,100430.91
2022-12-22T12:31:27.788Z,100434.16
2022-12-22T12:36:48.533Z,100437.75
2022-12-22T12:42:32.477Z,100435.38
2022-12-22T12:47:35.913Z,100447.69
2022-12-22T12:52:40.652Z,100448.69
2022-12-22T12:57:49.087Z,100444.44
2022-12-22T13:02:58.425Z,100448.00
2022-12-22T13:08:14.286Z,100436.91
2022-12-22T13:13:22.001Z,100430.44
2022-12-22T13:18:23.970Z,100426.81
2022-12-22T13:23:51.344Z,100425.63
2022-12-22T13:29:01.013Z,100412.97
2022-12-22T13:34:24.532Z,100396.38
2022-12-22T13:39:26.210Z,100383.03
2022-12-22T13:44:34.051Z,100377.22
2022-12-22T13:50:07.303Z,100373.63
2022-12-22T13:55:00.753Z,100366.41
2022-12-22T14:00:03.436Z,100361.63
2022-12-22T14:05:13.924Z,100361.28
2022-12-22T14:10:25.340Z,100361.78
2022-12-22T14:15:27.260Z,100368.63
2022-12-22T14:20:36.560Z,100342.41
2022-12-22T14:25:41.282Z,100332.34
2022-12-22T14:30:46.739Z,100329.38
2022-12-22T14:35:48.376Z,100333.16
2022-12-22T14:40:56.818Z,100330.41
2022-12-22T14:46:08.891Z,100323.94
2022-12-22T14:51:10.641Z,100323.91
2022-12-22T14:56:14.133Z,100318.97
2022-12-22T15:01:30.939Z,100320.84
2022-12-22T15:06:36.716Z,100305.63
2022-12-22T15:11:44.387Z,100305.13
2022-12-22T15:16:46.901Z,100296.09
2022-12-22T15:21:51.233Z,100286.63
2022-12-22T15:26:52.922Z,100277.72
2022-12-22T15:31:54.628Z,100271.25
2022-12-22T15:36:56.235Z,100275.72
2022-12-22T15:41:57.875Z,100287.66
2022-12-22T15:47:00.135Z,100265.75
2022-12-22T15:52:04.264Z,100265.94
2022-12-22T15:57:05.991Z,100259.28
2022-12-22T16:02:12.390Z,100257.72
2022-12-22T16:07:14.435Z,100242.50
2022-12-22T16:12:18.830Z,100230.34
2022-12-22T16:17:25.358Z,100219.16
2022-12-22T16:22:33.683Z,100216.44
2022-12-22T16:27:35.793Z,100202.59
2022-12-22T16:32:37.477Z,100199.38
2022-12-22T16:37:39.089Z,100192.50
2022-12-22T16:48:14.988Z,100188.75
2022-12-22T16:53:16.690Z,100182.22
2022-12-22T16:58:18.406Z,100183.28
2022-12-22T17:03:25.330Z,100166.47
2022-12-22T17:08:34.597Z,100163.69
2022-12-22T17:13:37.075Z,100152.78
2022-12-22T17:18:38.752Z,100146.97
2022-12-22T17:23:47.477Z,100143.72
2022-12-22T17:28:50.192Z,100137.34
2022-12-22T17:33:51.900Z,100116.41
2022-12-22T17:38:54.334Z,100120.03
2022-12-22T17:43:55.966Z,100125.69
2022-12-22T17:48:57.558Z,100109.25
2022-12-22T17:53:59.571Z,100104.25
2022-12-22T17:59:01.252Z,100109.34
2022-12-22T18:04:02.991Z,100116.72
2022-12-22T18:09:06.460Z,100103.41
2022-12-22T18:14:12.529Z,100089.34
2022-12-22T18:19:14.170Z,100095.50
2022-12-22T18:24:17.399Z,100089.16
2022-12-22T18:29:21.804Z,100089.00
2022-12-22T18:34:25.329Z,100073.56
2022-12-22T18:39:32.514Z,100066.88
2022-12-22T18:44:35.284Z,100072.84
2022-12-22T18:49:37.158Z,100078.31
2022-12-22T18:54:39.966Z,100075.91
2022-12-22T18:59:42.094Z,100070.41
2022-12-22T19:04:43.790Z,100067.16
2022-12-22T19:09:46.567Z,100060.25
2022-12-22T19:14:51.681Z,100067.09
2022-12-22T19:19:53.479Z,100058.50
2022-12-22T19:24:58.976Z,100061.03
2022-12-22T19:30:04.637Z,100066.53
2022-12-22T19:35:14.083Z,100063.59
2022-12-22T19:40:19.224Z,100054.16
2022-12-22T19:45:28.338Z,100057.56
2022-12-22T19:50:34.558Z,100046.06
2022-12-22T19:55:46.592Z,100048.22
2022-12-22T20:00:48.896Z,100050.59
2022-12-22T20:05:50.607Z,100051.91
2022-12-22T20:10:58.469Z,100059.78
2022-12-22T20:16:01.716Z,100057.72
2022-12-22T20:21:12.520Z,100053.72
2022-12-22T20:26:24.908Z,100034.53
2022-12-22T20:31:26.718Z,100034.66
2022-12-22T20:36:31.832Z,100044.56
2022-12-22T20:41:33.674Z,100052.81
2022-12-22T20:46:35.524Z,100057.94
2022-12-22T20:51:37.291Z,100067.66
2022-12-22T20:56:40.942Z,100063.41
2022-12-22T21:01:42.905Z,100064.53
2022-12-22T21:06:55.874Z,100063.69
2022-12-22T21:11:57.698Z,100062.44
2022-12-22T21:16:59.610Z,100064.75
2022-12-22T21:22:02.034Z,100071.34
2022-12-22T21:27:05.024Z,100071.56
2022-12-22T21:32:06.684Z,100085.81
2022-12-22T21:37:16.250Z,100082.88
2022-12-22T21:42:19.692Z,100084.97
2022-12-22T21:47:21.661Z,100086.69
2022-12-22T21:52:23.314Z,100083.06
2022-12-22T21:57:25.879Z,100089.22
2022-12-22T22:02:38.616Z,100096.41
2022-12-22T22:07:40.236Z,100104.47
2022-12-22T22:12:41.834Z,100114.03
2022-12-22T22:17:47.051Z,100114.88
2022-12-22T22:22:52.434Z,100113.47
2022-12-22T22:27:54.195Z,100116.69
2022-12-22T22:32:56.407Z,100117.72
2022-12-22T22:37:58.042Z,100115.63
2022-12-22T22:42:59.642Z,100116.97
2022-12-22T22:48:04.950Z,100112.72
2022-12-22T22:53:09.477Z,100100.88
2022-12-22T22:58:11.623Z,100109.22
2022-12-22T23:03:13.507Z,100107.97
2022-12-22T23:08:15.162Z,100109.78
2022-12-22T23:13:16.790Z,100102.88
2022-12-22T23:18:18.395Z,100116.28
2022-12-22T23:23:20.171Z,100116.13
2022-12-22T23:28:21.997Z,100122.25
2022-12-22T23:33:24.097Z,100127.19
2022-12-22T23:38:25.888Z,100130.41
2022-12-22T23:43:27.563Z,100138.81
2022-12-22T23:48:29.169Z,100139.91
2022-12-22T23:53:30.873Z,100160.28
2022-12-22T23:58:32.552Z,100167.47
